Time;durP1;ratioP1;P1;durP2;ratioP2;P2;SDS_P1;SDS_P2;PMS_P1;PMS_P2;Temp;Humidity;BMP_temperature;BMP_pressure;BME280_temperature;BME280_humidity;BME280_pressure;Samples;Min_cycle;Max_cycle;Signal;HPM_P1;HPM_P2
2022/01/27 00:00:04;;;;;;;28.50;13.63;;;;;;;;;;5008863;28;20034;-76
2022/01/27 00:04:52;;;;;;;28.25;13.63;;;;;;;;;;5008829;28;20495;-76
2022/01/27 00:07:18;;;;;;;29.52;13.77;;;;;;;;;;5009589;28;20041;-76
2022/01/27 00:10:08;;;;;;;30.92;15.13;;;;;;;;;;5009289;28;20037;-76
2022/01/27 00:12:33;;;;;;;31.38;14.05;;;;;;;;;;5008938;28;20502;-76
2022/01/27 00:15:09;;;;;;;32.08;15.05;;;;;;;;;;5010019;28;20037;-75
2022/01/27 00:17:41;;;;;;;32.40;14.48;;;;;;;;;;5009447;28;20052;-77
2022/01/27 00:20:08;;;;;;;33.28;14.05;;;;;;;;;;5008551;28;20022;-77
2022/01/27 00:22:34;;;;;;;31.17;14.55;;;;;;;;;;5008551;28;20034;-76
2022/01/27 00:25:02;;;;;;;30.42;13.75;;;;;;;;;;5007991;28;20056;-76
2022/01/27 00:27:29;;;;;;;29.92;15.60;;;;;;;;;;5009125;28;20030;-76
2022/01/27 00:29:55;;;;;;;30.60;14.45;;;;;;;;;;5008555;28;20057;-76
2022/01/27 00:32:21;;;;;;;30.17;14.75;;;;;;;;;;5008416;28;20048;-76
2022/01/27 00:34:47;;;;;;;32.83;15.30;;;;;;;;;;5027622;28;20037;-76
2022/01/27 00:37:13;;;;;;;27.65;13.68;;;;;;;;;;5028307;28;20466;-76
2022/01/27 00:39:38;;;;;;;27.83;13.93;;;;;;;;;;5028138;28;20030;-76
2022/01/27 00:42:05;;;;;;;32.33;15.30;;;;;;;;;;5027880;28;20811;-76
2022/01/27 00:44:31;;;;;;;30.35;14.43;;;;;;;;;;5028040;28;20593;-76
2022/01/27 00:46:56;;;;;;;32.10;14.95;;;;;;;;;;5028856;28;20125;-76
2022/01/27 00:49:24;;;;;;;30.92;13.73;;;;;;;;;;5027918;28;20065;-76
2022/01/27 00:51:50;;;;;;;29.85;14.18;;;;;;;;;;5027719;28;20045;-77
2022/01/27 00:54:23;;;;;;;31.30;14.57;;;;;;;;;;5028114;28;20046;-77
2022/01/27 00:56:56;;;;;;;31.17;14.55;;;;;;;;;;5027948;28;20052;-76
2022/01/27 01:02:17;;;;;;;30.58;15.63;;;;;;;;;;5028066;28;20467;-76
2022/01/27 01:04:47;;;;;;;31.63;14.32;;;;;;;;;;5028632;28;20483;-77
2022/01/27 01:07:15;;;;;;;33.65;16.05;;;;;;;;;;5009118;28;20104;-76
2022/01/27 01:15:28;;;;;;;32.75;14.90;;;;;;;;;;5012046;28;20037;-77
2022/01/27 01:34:16;;;;;;;34.80;15.23;;;;;;;;;;5025364;28;20372;-77
2022/01/27 01:39:28;;;;;;;32.00;14.65;;;;;;;;;;5016114;28;20034;-77
2022/01/27 01:41:55;;;;;;;34.20;15.23;;;;;;;;;;5011440;28;20026;-77
2022/01/27 01:44:21;;;;;;;33.08;15.57;;;;;;;;;;5011953;28;20475;-77
2022/01/27 01:46:47;;;;;;;34.15;16.35;;;;;;;;;;5011725;28;20042;-77
2022/01/27 01:49:13;;;;;;;34.28;14.88;;;;;;;;;;5012080;28;20049;-77
2022/01/27 01:51:40;;;;;;;33.67;14.93;;;;;;;;;;5010131;28;20391;-77
2022/01/27 01:54:07;;;;;;;34.53;15.25;;;;;;;;;;5010728;28;20657;-77
2022/01/27 01:56:35;;;;;;;33.80;15.80;;;;;;;;;;5010973;28;20041;-77
2022/01/27 01:59:02;;;;;;;35.65;16.23;;;;;;;;;;5011093;28;20048;-77
2022/01/27 02:01:28;;;;;;;35.13;16.08;;;;;;;;;;5011719;28;20431;-77
2022/01/27 02:03:54;;;;;;;37.10;16.52;;;;;;;;;;5011381;28;20050;-77
2022/01/27 02:06:29;;;;;;;32.72;15.88;;;;;;;;;;5011539;28;20495;-77
2022/01/27 02:19:40;;;;;;;31.67;14.82;;;;;;;;;;5010426;28;20022;-77
2022/01/27 02:22:06;;;;;;;35.33;16.35;;;;;;;;;;5010045;28;20145;-77
2022/01/27 02:24:34;;;;;;;38.50;16.85;;;;;;;;;;5010031;28;20081;-77
2022/01/27 02:27:01;;;;;;;34.25;16.10;;;;;;;;;;5010539;28;20038;-77
2022/01/27 02:29:28;;;;;;;37.15;16.85;;;;;;;;;;5010111;28;20034;-75
2022/01/27 02:31:56;;;;;;;36.67;16.88;;;;;;;;;;5010116;28;20038;-77
2022/01/27 02:34:24;;;;;;;38.45;17.23;;;;;;;;;;5025407;28;20038;-77
2022/01/27 02:36:51;;;;;;;36.03;16.90;;;;;;;;;;5029507;28;20049;-77
2022/01/27 02:39:18;;;;;;;39.33;17.40;;;;;;;;;;5029771;28;20491;-77
2022/01/27 02:41:49;;;;;;;34.47;15.98;;;;;;;;;;5029434;28;20029;-77
2022/01/27 02:44:42;;;;;;;34.70;16.52;;;;;;;;;;5030101;28;20479;-77
2022/01/27 02:47:08;;;;;;;34.92;16.90;;;;;;;;;;5029903;28;20042;-77
2022/01/27 02:49:34;;;;;;;40.17;17.73;;;;;;;;;;5029390;28;20033;-76
2022/01/27 02:52:00;;;;;;;36.03;16.13;;;;;;;;;;5029321;28;20061;-77
2022/01/27 02:54:26;;;;;;;34.63;16.00;;;;;;;;;;5029413;28;20084;-77
2022/01/27 02:56:52;;;;;;;37.47;17.27;;;;;;;;;;5029838;28;20041;-77
2022/01/27 02:59:20;;;;;;;41.50;18.02;;;;;;;;;;5028870;28;20692;-77
2022/01/27 03:01:48;;;;;;;38.50;17.58;;;;;;;;;;5029154;28;20021;-77
2022/01/27 03:04:16;;;;;;;38.65;17.95;;;;;;;;;;5029318;28;20039;-77
2022/01/27 03:06:43;;;;;;;34.90;16.58;;;;;;;;;;5029465;28;20052;-77
2022/01/27 03:09:09;;;;;;;36.92;16.88;;;;;;;;;;5011517;28;20041;-76
2022/01/27 03:11:50;;;;;;;40.63;17.40;;;;;;;;;;5008782;28;20026;-77
2022/01/27 03:14:22;;;;;;;36.33;16.67;;;;;;;;;;5009307;28;20053;-76
2022/01/27 03:16:49;;;;;;;38.30;16.55;;;;;;;;;;5009301;28;20040;-76
2022/01/27 03:19:15;;;;;;;35.85;15.93;;;;;;;;;;5009895;28;20604;-76
2022/01/27 03:21:41;;;;;;;37.75;17.95;;;;;;;;;;5009270;28;20034;-76
2022/01/27 03:24:07;;;;;;;35.33;16.02;;;;;;;;;;5009240;28;20054;-75
2022/01/27 03:26:33;;;;;;;32.78;16.35;;;;;;;;;;5009174;28;20034;-76
2022/01/27 03:29:00;;;;;;;34.45;16.45;;;;;;;;;;5009472;28;20041;-76
2022/01/27 03:31:27;;;;;;;38.60;17.85;;;;;;;;;;5010014;28;20042;-76
2022/01/27 03:33:53;;;;;;;37.28;16.50;;;;;;;;;;5009372;28;20022;-76
2022/01/27 03:36:20;;;;;;;34.30;16.25;;;;;;;;;;5009999;28;20042;-78
2022/01/27 03:38:46;;;;;;;34.40;15.25;;;;;;;;;;5009391;28;20487;-76
2022/01/27 03:41:18;;;;;;;38.70;16.40;;;;;;;;;;5009200;28;20479;-76
2022/01/27 03:43:45;;;;;;;35.17;15.70;;;;;;;;;;5009287;28;20029;-76
2022/01/27 03:46:11;;;;;;;34.95;15.60;;;;;;;;;;5009293;28;20476;-76
2022/01/27 03:48:37;;;;;;;37.35;15.63;;;;;;;;;;5008626;28;20034;-75
2022/01/27 03:51:03;;;;;;;33.40;15.30;;;;;;;;;;5009421;28;20065;-76
2022/01/27 03:53:30;;;;;;;36.70;16.02;;;;;;;;;;5008828;28;20026;-78
2022/01/27 03:55:56;;;;;;;34.40;15.23;;;;;;;;;;5009230;28;20048;-77
2022/01/27 03:58:22;;;;;;;38.40;15.85;;;;;;;;;;5009422;28;20037;-78
2022/01/27 04:00:48;;;;;;;32.85;14.48;;;;;;;;;;5009234;28;20078;-76
2022/01/27 04:03:16;;;;;;;32.60;15.73;;;;;;;;;;5008649;28;20038;-77
2022/01/27 04:05:54;;;;;;;34.53;15.63;;;;;;;;;;5008342;28;20029;-76
2022/01/27 04:08:21;;;;;;;29.92;14.45;;;;;;;;;;5008510;28;20045;-77
2022/01/27 04:10:48;;;;;;;29.80;14.48;;;;;;;;;;5008819;28;20045;-77
2022/01/27 04:13:15;;;;;;;32.80;15.40;;;;;;;;;;5008307;28;20030;-78
2022/01/27 04:15:42;;;;;;;31.83;14.65;;;;;;;;;;5008085;28;20040;-78
2022/01/27 04:18:10;;;;;;;34.78;15.05;;;;;;;;;;5008293;28;20030;-75
2022/01/27 04:20:40;;;;;;;37.05;15.73;;;;;;;;;;5008207;28;20065;-76
2022/01/27 04:23:07;;;;;;;32.42;15.60;;;;;;;;;;5008009;28;20440;-76
2022/01/27 04:25:34;;;;;;;35.10;16.02;;;;;;;;;;5008763;28;20388;-76
2022/01/27 04:28:05;;;;;;;36.13;16.67;;;;;;;;;;5008106;28;20050;-77
2022/01/27 04:30:31;;;;;;;38.53;16.63;;;;;;;;;;5008753;28;20065;-77
2022/01/27 04:32:59;;;;;;;35.50;15.43;;;;;;;;;;5012086;28;20673;-77
2022/01/27 04:35:28;;;;;;;35.58;16.85;;;;;;;;;;5027594;28;20033;-77
2022/01/27 04:40:35;;;;;;;39.80;17.80;;;;;;;;;;5027592;28;20036;-77
2022/01/27 04:45:34;;;;;;;34.92;15.68;;;;;;;;;;5028870;28;20589;-77
2022/01/27 04:48:09;;;;;;;36.58;15.73;;;;;;;;;;5032405;28;20361;-77
2022/01/27 04:50:36;;;;;;;33.58;14.88;;;;;;;;;;5029931;28;20045;-77
2022/01/27 04:53:05;;;;;;;36.72;16.35;;;;;;;;;;5032122;28;20060;-77
2022/01/27 04:55:31;;;;;;;36.25;15.98;;;;;;;;;;5031654;28;20402;-78
2022/01/27 04:58:08;;;;;;;34.67;15.57;;;;;;;;;;5031495;28;20065;-78
2022/01/27 05:00:35;;;;;;;32.92;15.18;;;;;;;;;;5027056;28;20046;-77
2022/01/27 05:03:03;;;;;;;33.67;14.27;;;;;;;;;;5011351;28;20153;-77
2022/01/27 05:05:31;;;;;;;31.95;14.25;;;;;;;;;;5011287;28;20022;-78
2022/01/27 05:08:00;;;;;;;33.67;14.70;;;;;;;;;;4986310;28;20040;-77
2022/01/27 05:10:31;;;;;;;34.03;14.55;;;;;;;;;;5008826;28;20025;-77
2022/01/27 05:13:06;;;;;;;36.35;14.95;;;;;;;;;;5011500;28;20026;-77
2022/01/27 05:15:34;;;;;;;32.97;13.43;;;;;;;;;;5011631;28;20797;-77
2022/01/27 05:18:00;;;;;;;28.50;13.80;;;;;;;;;;5011688;28;20498;-76
2022/01/27 05:20:26;;;;;;;27.13;12.07;;;;;;;;;;5011181;28;20046;-76
2022/01/27 05:22:53;;;;;;;28.42;12.52;;;;;;;;;;5011862;28;20046;-76
2022/01/27 05:25:19;;;;;;;28.67;12.25;;;;;;;;;;5012088;28;20049;-76
2022/01/27 05:27:45;;;;;;;26.08;12.45;;;;;;;;;;5011166;28;20061;-76
2022/01/27 05:30:10;;;;;;;30.42;13.65;;;;;;;;;;5011290;28;20057;-77
2022/01/27 05:32:37;;;;;;;28.88;12.63;;;;;;;;;;5012393;28;20033;-75
2022/01/27 05:35:03;;;;;;;34.13;14.27;;;;;;;;;;5000257;28;20069;-80
2022/01/27 05:37:29;;;;;;;33.38;12.68;;;;;;;;;;5004960;28;20645;-76
2022/01/27 05:39:55;;;;;;;29.90;12.32;;;;;;;;;;5011212;28;20042;-78
2022/01/27 05:42:20;;;;;;;23.58;10.52;;;;;;;;;;5015109;28;20061;-77
2022/01/27 05:44:46;;;;;;;26.25;11.40;;;;;;;;;;5015837;28;20070;-78
2022/01/27 05:47:13;;;;;;;28.67;11.68;;;;;;;;;;5016502;28;20410;-78
2022/01/27 05:49:39;;;;;;;24.95;11.27;;;;;;;;;;5020481;28;20531;-78
2022/01/27 05:52:05;;;;;;;27.52;11.18;;;;;;;;;;5022710;28;20052;-77
2022/01/27 05:54:34;;;;;;;25.38;11.95;;;;;;;;;;5014508;28;20026;-78
2022/01/27 05:57:00;;;;;;;26.40;11.38;;;;;;;;;;5030331;28;20033;-76
2022/01/27 05:59:26;;;;;;;27.88;11.73;;;;;;;;;;5023071;28;20030;-78
2022/01/27 06:01:52;;;;;;;28.65;11.00;;;;;;;;;;5022345;28;20061;-77
2022/01/27 06:04:18;;;;;;;28.13;11.07;;;;;;;;;;5015923;28;20069;-80
2022/01/27 06:06:44;;;;;;;24.17;10.45;;;;;;;;;;5027839;28;20636;-79
2022/01/27 06:09:11;;;;;;;26.27;11.20;;;;;;;;;;5025435;28;20399;-77
2022/01/27 06:11:37;;;;;;;50.10;23.83;;;;;;;;;;5024772;28;20040;-79
2022/01/27 06:14:03;;;;;;;25.33;10.98;;;;;;;;;;5013328;28;20391;-79
2022/01/27 06:16:29;;;;;;;28.17;10.85;;;;;;;;;;5016515;28;20048;-78
2022/01/27 06:18:55;;;;;;;24.02;10.50;;;;;;;;;;5023826;28;20041;-77
2022/01/27 06:21:21;;;;;;;25.40;10.50;;;;;;;;;;5022216;28;20064;-77
2022/01/27 06:23:47;;;;;;;26.67;11.05;;;;;;;;;;5020073;28;20046;-77
2022/01/27 06:26:13;;;;;;;25.98;11.43;;;;;;;;;;5025499;28;20624;-77
2022/01/27 06:28:39;;;;;;;28.52;11.50;;;;;;;;;;5015146;28;20060;-77
2022/01/27 06:31:04;;;;;;;27.23;11.35;;;;;;;;;;5021670;28;20120;-79
2022/01/27 06:33:30;;;;;;;24.45;11.77;;;;;;;;;;5013019;28;20271;-78
2022/01/27 06:35:56;;;;;;;22.98;10.70;;;;;;;;;;5023572;28;20087;-74
2022/01/27 06:38:22;;;;;;;32.58;14.07;;;;;;;;;;5014750;28;20065;-70
2022/01/27 06:40:48;;;;;;;27.95;12.02;;;;;;;;;;5013247;28;20064;-73
2022/01/27 06:43:15;;;;;;;26.02;11.30;;;;;;;;;;5025429;28;20144;-73
2022/01/27 06:45:41;;;;;;;26.60;11.13;;;;;;;;;;5010323;28;20034;-73
2022/01/27 06:48:07;;;;;;;26.95;11.45;;;;;;;;;;5010253;28;20041;-71
2022/01/27 06:50:36;;;;;;;27.15;10.68;;;;;;;;;;5009927;28;20052;-74
2022/01/27 06:53:02;;;;;;;25.35;11.35;;;;;;;;;;5027629;28;20048;-71
2022/01/27 06:55:28;;;;;;;31.77;12.07;;;;;;;;;;5015887;28;20487;-71
2022/01/27 06:57:54;;;;;;;28.75;11.23;;;;;;;;;;5011957;28;20041;-73
2022/01/27 07:00:20;;;;;;;27.23;11.70;;;;;;;;;;5012634;28;20480;-73
2022/01/27 07:02:46;;;;;;;29.30;11.68;;;;;;;;;;5012366;28;20104;-78
2022/01/27 07:05:17;;;;;;;56.22;24.58;;;;;;;;;;5008877;28;20061;-78
2022/01/27 07:07:42;;;;;;;29.67;12.52;;;;;;;;;;5009550;28;20045;-78
2022/01/27 07:10:09;;;;;;;27.13;11.13;;;;;;;;;;5009823;28;20490;-75
2022/01/27 07:12:38;;;;;;;25.85;11.48;;;;;;;;;;5008850;28;20034;-73
2022/01/27 07:15:04;;;;;;;25.95;12.05;;;;;;;;;;5027513;28;20022;-76
2022/01/27 07:17:30;;;;;;;21.65;10.82;;;;;;;;;;5022077;28;20033;-75
2022/01/27 07:19:56;;;;;;;23.48;12.13;;;;;;;;;;5019040;28;20057;-78
2022/01/27 07:22:22;;;;;;;26.05;10.77;;;;;;;;;;5028038;28;20399;-73
2022/01/27 07:24:48;;;;;;;23.65;10.15;;;;;;;;;;5027550;28;20057;-72
2022/01/27 07:27:14;;;;;;;25.27;11.02;;;;;;;;;;5027990;28;20045;-73
2022/01/27 07:29:40;;;;;;;28.50;11.85;;;;;;;;;;5028002;28;20402;-75
2022/01/27 07:32:06;;;;;;;29.60;13.43;;;;;;;;;;5027808;28;20021;-76
2022/01/27 07:34:32;;;;;;;38.40;19.77;;;;;;;;;;5012749;28;20417;-75
2022/01/27 07:37:01;;;;;;;24.63;10.68;;;;;;;;;;5009895;28;20029;-74
2022/01/27 07:39:27;;;;;;;24.73;10.27;;;;;;;;;;5010103;28;20444;-76
2022/01/27 07:41:53;;;;;;;26.48;10.98;;;;;;;;;;5010622;28;20049;-75
2022/01/27 07:44:24;;;;;;;25.50;11.55;;;;;;;;;;5010817;28;20033;-76
2022/01/27 07:46:50;;;;;;;28.73;11.52;;;;;;;;;;5009792;28;20044;-75
2022/01/27 07:49:15;;;;;;;29.98;11.77;;;;;;;;;;5008838;28;20202;-75
2022/01/27 07:51:41;;;;;;;28.13;11.60;;;;;;;;;;5013141;28;20539;-76
2022/01/27 07:54:10;;;;;;;27.85;11.65;;;;;;;;;;5008930;28;20038;-76
2022/01/27 07:56:39;;;;;;;23.58;11.10;;;;;;;;;;5009910;28;20052;-75
2022/01/27 07:59:05;;;;;;;29.23;11.82;;;;;;;;;;5024516;28;20040;-77
2022/01/27 08:01:31;;;;;;;28.60;12.13;;;;;;;;;;5030910;28;20045;-77
2022/01/27 08:03:57;;;;;;;26.00;11.52;;;;;;;;;;5025158;28;20050;-78
2022/01/27 08:06:23;;;;;;;27.15;12.15;;;;;;;;;;5010426;28;20061;-76
2022/01/27 08:08:50;;;;;;;26.13;11.77;;;;;;;;;;5021948;28;20030;-76
2022/01/27 08:11:18;;;;;;;27.45;11.50;;;;;;;;;;5014876;28;20411;-74
2022/01/27 08:13:44;;;;;;;25.77;11.80;;;;;;;;;;5008680;28;20061;-73
2022/01/27 08:16:10;;;;;;;27.50;11.82;;;;;;;;;;5009131;28;20049;-73
2022/01/27 08:18:36;;;;;;;54.47;23.45;;;;;;;;;;5010691;28;20511;-74
2022/01/27 08:21:03;;;;;;;27.77;11.40;;;;;;;;;;5027889;28;20045;-75
2022/01/27 08:23:29;;;;;;;25.95;11.82;;;;;;;;;;5025487;28;20537;-75
2022/01/27 08:26:07;;;;;;;26.40;11.82;;;;;;;;;;5007971;28;20038;-74
2022/01/27 08:28:43;;;;;;;33.75;12.15;;;;;;;;;;5008495;28;20076;-74
2022/01/27 08:31:09;;;;;;;27.08;11.57;;;;;;;;;;5012989;28;20034;-74
2022/01/27 08:33:38;;;;;;;28.23;13.52;;;;;;;;;;5010093;28;20038;-77
2022/01/27 08:36:05;;;;;;;25.08;12.48;;;;;;;;;;5013291;28;20041;-75
2022/01/27 08:38:31;;;;;;;25.88;11.73;;;;;;;;;;5011249;28;20067;-74
2022/01/27 08:40:59;;;;;;;25.67;11.13;;;;;;;;;;5024325;28;20048;-77
2022/01/27 08:43:26;;;;;;;27.98;11.90;;;;;;;;;;5018710;28;20050;-74
2022/01/27 08:45:52;;;;;;;30.05;12.60;;;;;;;;;;5008141;28;20033;-74
2022/01/27 08:48:22;;;;;;;24.08;12.40;;;;;;;;;;5021703;28;20040;-73
2022/01/27 08:50:59;;;;;;;29.88;12.82;;;;;;;;;;5018761;28;20499;-75
2022/01/27 08:53:27;;;;;;;28.85;13.30;;;;;;;;;;5026438;28;20556;-75
2022/01/27 08:55:56;;;;;;;32.80;14.13;;;;;;;;;;5010790;28;20041;-75
2022/01/27 08:58:25;;;;;;;30.65;12.63;;;;;;;;;;5022554;28;20045;-73
2022/01/27 09:00:53;;;;;;;28.55;12.27;;;;;;;;;;5006775;28;20050;-76
2022/01/27 09:03:20;;;;;;;26.63;12.43;;;;;;;;;;5012074;28;20045;-75
2022/01/27 09:05:49;;;;;;;30.42;13.45;;;;;;;;;;5013980;28;20041;-82
2022/01/27 09:08:15;;;;;;;30.75;12.70;;;;;;;;;;5014563;28;20460;-79
2022/01/27 09:10:41;;;;;;;25.00;12.05;;;;;;;;;;5018622;28;20034;-82
2022/01/27 09:13:07;;;;;;;28.60;13.60;;;;;;;;;;5006624;28;20381;-79
2022/01/27 09:15:34;;;;;;;25.33;12.00;;;;;;;;;;5018550;28;20045;-79
2022/01/27 09:18:00;;;;;;;56.47;21.92;;;;;;;;;;5010491;28;20053;-79
2022/01/27 09:20:27;;;;;;;31.20;14.45;;;;;;;;;;5008828;28;20046;-77
2022/01/27 09:22:55;;;;;;;26.38;12.00;;;;;;;;;;5012989;28;20037;-77
2022/01/27 09:25:26;;;;;;;31.45;13.70;;;;;;;;;;5013111;28;20405;-77
2022/01/27 09:27:53;;;;;;;34.50;13.15;;;;;;;;;;5008705;28;20046;-77
2022/01/27 09:30:19;;;;;;;29.90;13.30;;;;;;;;;;5008543;28;20034;-76
2022/01/27 09:32:46;;;;;;;34.22;12.65;;;;;;;;;;5013723;28;20471;-77
2022/01/27 09:35:14;;;;;;;25.73;12.30;;;;;;;;;;5014778;28;20038;-77
2022/01/27 09:37:40;;;;;;;27.83;12.38;;;;;;;;;;5010347;28;20507;-80
2022/01/27 09:40:07;;;;;;;27.30;11.75;;;;;;;;;;5011598;28;20038;-79
2022/01/27 09:42:35;;;;;;;25.08;12.63;;;;;;;;;;5012099;28;20042;-77
2022/01/27 09:45:05;;;;;;;28.38;12.43;;;;;;;;;;5010922;28;20060;-78
2022/01/27 09:47:34;;;;;;;26.13;12.98;;;;;;;;;;5010384;28;20034;-78
2022/01/27 09:50:21;;;;;;;28.45;13.48;;;;;;;;;;5025576;28;20383;-78
2022/01/27 09:52:47;;;;;;;24.90;11.85;;;;;;;;;;5000095;28;20026;-77
2022/01/27 09:55:13;;;;;;;26.85;11.82;;;;;;;;;;5023298;28;20042;-78
2022/01/27 09:57:39;;;;;;;27.50;12.75;;;;;;;;;;5014324;28;20622;-77
2022/01/27 10:00:06;;;;;;;27.05;12.55;;;;;;;;;;5011197;28;20064;-77
2022/01/27 10:02:34;;;;;;;25.67;11.70;;;;;;;;;;5012465;28;20026;-78
2022/01/27 10:05:02;;;;;;;25.42;12.48;;;;;;;;;;5034645;28;20506;-76
2022/01/27 10:07:35;;;;;;;24.88;12.02;;;;;;;;;;5019992;28;20130;-76
2022/01/27 10:10:09;;;;;;;24.60;11.50;;;;;;;;;;5027545;28;20042;-77
2022/01/27 10:12:45;;;;;;;24.55;12.07;;;;;;;;;;5002410;28;20037;-78
2022/01/27 10:15:17;;;;;;;24.38;11.27;;;;;;;;;;5022221;28;20038;-78
2022/01/27 10:18:02;;;;;;;23.20;11.48;;;;;;;;;;5011940;28;20033;-78
2022/01/27 10:20:28;;;;;;;23.55;11.38;;;;;;;;;;5027559;28;20435;-78
2022/01/27 10:23:23;;;;;;;22.00;10.15;;;;;;;;;;5017755;28;20021;-77
2022/01/27 10:25:55;;;;;;;20.90;9.95;;;;;;;;;;5018193;28;20046;-78
2022/01/27 10:29:01;;;;;;;22.17;10.98;;;;;;;;;;5013302;28;20476;-77
2022/01/27 10:31:23;;;;;;;19.35;9.98;;;;;;;;;;5013080;28;20030;-77
2022/01/27 10:34:03;;;;;;;19.73;9.63;;;;;;;;;;5013160;28;20415;-77
2022/01/27 10:36:40;;;;;;;23.25;10.32;;;;;;;;;;5013572;28;20049;-77
2022/01/27 10:39:09;;;;;;;19.77;9.25;;;;;;;;;;5013022;28;20045;-77
2022/01/27 10:41:38;;;;;;;20.10;10.35;;;;;;;;;;5011728;28;20037;-77
2022/01/27 10:44:11;;;;;;;19.92;10.15;;;;;;;;;;5013628;28;20030;-77
2022/01/27 10:46:58;;;;;;;19.20;9.27;;;;;;;;;;5012996;28;20375;-76
2022/01/27 10:49:37;;;;;;;18.45;8.68;;;;;;;;;;5013518;28;20052;-77
2022/01/27 10:52:04;;;;;;;20.48;9.63;;;;;;;;;;5013700;28;20053;-77
2022/01/27 10:54:39;;;;;;;16.15;8.63;;;;;;;;;;5031372;28;20026;-77
2022/01/27 10:57:08;;;;;;;17.63;10.02;;;;;;;;;;5032699;28;20057;-78
2022/01/27 10:59:35;;;;;;;19.00;9.10;;;;;;;;;;5031188;28;20045;-77
2022/01/27 11:02:08;;;;;;;18.80;8.82;;;;;;;;;;5011035;28;20175;-78
2022/01/27 11:04:42;;;;;;;32.95;15.15;;;;;;;;;;5017618;28;20049;-78
2022/01/27 11:07:16;;;;;;;22.05;9.73;;;;;;;;;;5014662;28;20411;-77
2022/01/27 11:09:44;;;;;;;20.23;8.63;;;;;;;;;;5031457;28;20041;-78
2022/01/27 11:12:16;;;;;;;16.48;8.95;;;;;;;;;;5030743;28;20216;-76
2022/01/27 11:14:47;;;;;;;19.75;8.52;;;;;;;;;;5030403;28;20037;-77
2022/01/27 11:17:20;;;;;;;20.17;9.85;;;;;;;;;;5166474;22;20339;-84
2022/01/27 11:22:42;;;;;;;16.23;8.98;;;;;;;;;;5052162;28;20047;-84
2022/01/27 11:27:46;;;;;;;19.73;9.80;;;;;;;;;;5059177;28;20041;-84
2022/01/27 11:30:24;;;;;;;19.17;8.48;;;;;;;;;;5054361;28;20025;-84
2022/01/27 11:33:06;;;;;;;15.68;8.57;;;;;;;;;;5053757;28;20044;-83
2022/01/27 11:35:32;;;;;;;18.08;8.20;;;;;;;;;;5052596;28;20037;-83
2022/01/27 11:38:04;;;;;;;18.98;8.45;;;;;;;;;;5053981;28;20046;-84
2022/01/27 11:40:40;;;;;;;18.92;8.85;;;;;;;;;;5051951;28;20045;-85
2022/01/27 11:43:33;;;;;;;19.08;9.07;;;;;;;;;;5053310;28;20044;-83
2022/01/27 11:46:26;;;;;;;19.08;8.50;;;;;;;;;;5055469;28;20473;-87
2022/01/27 11:49:00;;;;;;;18.67;9.40;;;;;;;;;;5054955;28;20037;-82
2022/01/27 11:51:26;;;;;;;18.65;8.32;;;;;;;;;;5038010;28;20032;-82
2022/01/27 11:53:56;;;;;;;16.15;9.00;;;;;;;;;;5060648;28;20116;-84
2022/01/27 11:56:28;;;;;;;17.92;8.80;;;;;;;;;;5063906;28;20037;-85
2022/01/27 11:58:56;;;;;;;18.58;9.38;;;;;;;;;;5076738;28;20037;-84
2022/01/27 12:10:38;;;;;;;22.27;9.68;;;;;;;;;;5428111;22;20016;-79
2022/01/27 12:19:09;;;;;;;19.92;9.43;;;;;;;;;;5011013;28;20065;-80
2022/01/27 12:21:52;;;;;;;24.05;9.93;;;;;;;;;;5009074;28;20054;-79
2022/01/27 12:24:27;;;;;;;16.33;8.27;;;;;;;;;;5010175;28;20050;-80
2022/01/27 12:27:04;;;;;;;19.85;9.30;;;;;;;;;;5010402;28;20050;-79
2022/01/27 12:29:41;;;;;;;18.13;9.95;;;;;;;;;;5010629;28;20037;-80
2022/01/27 12:32:23;;;;;;;18.20;9.23;;;;;;;;;;5008799;28;20033;-80
2022/01/27 12:34:57;;;;;;;23.05;10.00;;;;;;;;;;4995918;28;20430;-79
2022/01/27 12:37:29;;;;;;;22.73;9.60;;;;;;;;;;5000252;28;20052;-79
2022/01/27 12:39:58;;;;;;;20.85;10.05;;;;;;;;;;5008936;28;20057;-79
2022/01/27 12:42:30;;;;;;;22.40;9.73;;;;;;;;;;4993149;28;20059;-80
2022/01/27 12:45:03;;;;;;;25.02;10.77;;;;;;;;;;5001691;28;20513;-80
2022/01/27 12:47:31;;;;;;;25.10;11.25;;;;;;;;;;4979265;28;20080;-80
2022/01/27 12:50:07;;;;;;;26.35;10.63;;;;;;;;;;4999337;28;20053;-79
2022/01/27 12:52:39;;;;;;;22.55;9.75;;;;;;;;;;5006088;28;20042;-79
2022/01/27 12:55:06;;;;;;;25.10;10.18;;;;;;;;;;4992917;28;20057;-79
2022/01/27 12:57:32;;;;;;;22.73;11.48;;;;;;;;;;5002293;28;20049;-79
2022/01/27 13:00:00;;;;;;;24.75;10.93;;;;;;;;;;5001060;28;20061;-80
2022/01/27 13:02:27;;;;;;;24.45;12.00;;;;;;;;;;5009586;28;20037;-79
2022/01/27 13:04:55;;;;;;;23.85;11.32;;;;;;;;;;4993971;28;20365;-79
2022/01/27 13:07:22;;;;;;;27.67;11.93;;;;;;;;;;5008806;28;20484;-80
2022/01/27 13:10:05;;;;;;;24.70;12.10;;;;;;;;;;5003533;28;20050;-80
2022/01/27 13:12:41;;;;;;;23.42;11.88;;;;;;;;;;5003689;28;20527;-79
2022/01/27 13:15:14;;;;;;;26.15;11.77;;;;;;;;;;4981888;28;20046;-79
2022/01/27 13:20:26;;;;;;;26.83;12.70;;;;;;;;;;4994191;28;20034;-79
2022/01/27 13:23:29;;;;;;;25.13;12.02;;;;;;;;;;4994262;28;20037;-79
2022/01/27 13:26:05;;;;;;;26.77;12.27;;;;;;;;;;4994028;28;20065;-79
2022/01/27 13:28:36;;;;;;;22.33;11.45;;;;;;;;;;4991899;28;20515;-79
2022/01/27 13:31:03;;;;;;;;;;;;;;;;;;4994393;28;20061;-79
2022/01/27 13:33:36;;;;;;;24.85;11.43;;;;;;;;;;4992909;28;19918;-79
2022/01/27 13:36:03;;;;;;;25.60;12.50;;;;;;;;;;5009831;28;20057;-79
2022/01/27 13:38:38;;;;;;;27.33;12.98;;;;;;;;;;4997153;28;20025;-80
2022/01/27 13:41:23;;;;;;;25.73;12.10;;;;;;;;;;5003823;28;20030;-80
2022/01/27 13:44:08;;;;;;;32.00;16.70;;;;;;;;;;4998016;28;20042;-78
2022/01/27 13:46:45;;;;;;;30.17;13.35;;;;;;;;;;4981785;28;20366;-78
2022/01/27 13:49:24;;;;;;;24.17;11.70;;;;;;;;;;5002839;28;20061;-77
2022/01/27 13:52:00;;;;;;;24.90;11.70;;;;;;;;;;5007747;28;20025;-77
2022/01/27 13:54:29;;;;;;;26.58;12.80;;;;;;;;;;4986949;28;20044;-77
2022/01/27 13:56:55;;;;;;;26.05;12.52;;;;;;;;;;4999355;28;20048;-77
2022/01/27 13:59:28;;;;;;;22.95;11.45;;;;;;;;;;5010109;28;20065;-77
2022/01/27 14:02:14;;;;;;;24.27;11.50;;;;;;;;;;4997352;28;20054;-78
2022/01/27 14:04:44;;;;;;;23.38;11.98;;;;;;;;;;4982815;28;20068;-78
2022/01/27 14:07:10;;;;;;;23.88;12.23;;;;;;;;;;5003402;28;20461;-78
2022/01/27 14:09:40;;;;;;;25.50;11.02;;;;;;;;;;5000269;28;20076;-76
2022/01/27 14:12:07;;;;;;;24.05;10.75;;;;;;;;;;4980320;28;20030;-77
2022/01/27 14:14:53;;;;;;;23.77;10.88;;;;;;;;;;4991806;28;20042;-76
2022/01/27 14:17:29;;;;;;;23.20;10.55;;;;;;;;;;4988045;28;20073;-79
2022/01/27 14:19:56;;;;;;;21.77;11.00;;;;;;;;;;4999128;28;20045;-80
2022/01/27 14:22:29;;;;;;;23.35;11.27;;;;;;;;;;4999070;28;20043;-80
2022/01/27 14:25:02;;;;;;;20.83;10.50;;;;;;;;;;5003300;28;20034;-80
2022/01/27 14:27:40;;;;;;;24.38;9.68;;;;;;;;;;4993351;28;20452;-82
2022/01/27 14:30:12;;;;;;;18.45;9.90;;;;;;;;;;4997281;28;20057;-79
2022/01/27 14:32:41;;;;;;;20.25;9.70;;;;;;;;;;4997814;28;20034;-79
2022/01/27 14:35:09;;;;;;;20.40;9.93;;;;;;;;;;4991535;28;20053;-77
2022/01/27 14:37:37;;;;;;;20.13;10.55;;;;;;;;;;4985305;28;20058;-79
2022/01/27 14:40:04;;;;;;;21.65;9.75;;;;;;;;;;4998360;28;20484;-78
2022/01/27 14:42:32;;;;;;;21.23;10.45;;;;;;;;;;4998088;28;20046;-80
2022/01/27 14:44:59;;;;;;;48.20;21.73;;;;;;;;;;4987822;28;20344;-79
2022/01/27 14:47:25;;;;;;;21.02;10.38;;;;;;;;;;4989116;28;20041;-81
2022/01/27 14:49:53;;;;;;;21.40;9.90;;;;;;;;;;4996226;28;20049;-80
2022/01/27 14:52:24;;;;;;;19.98;10.32;;;;;;;;;;4989603;28;20066;-80
2022/01/27 14:54:50;;;;;;;;;;;;;;;;;;4993315;28;20041;-78
2022/01/27 14:57:16;;;;;;;20.80;9.65;;;;;;;;;;4995118;28;20465;-76
2022/01/27 14:59:42;;;;;;;20.40;9.52;;;;;;;;;;4996540;28;20045;-76
2022/01/27 15:02:08;;;;;;;20.58;11.88;;;;;;;;;;4993566;28;20418;-76
2022/01/27 15:04:34;;;;;;;20.90;9.45;;;;;;;;;;4999216;28;20045;-77
2022/01/27 15:07:04;;;;;;;18.48;9.50;;;;;;;;;;4991734;28;20042;-76
2022/01/27 15:09:31;;;;;;;21.17;9.77;;;;;;;;;;4993049;28;20057;-76
2022/01/27 15:11:57;;;;;;;19.13;10.05;;;;;;;;;;4982278;28;20043;-77
2022/01/27 15:19:56;;;;;;;18.63;9.10;;;;;;;;;;4985763;28;20038;-76
2022/01/27 15:22:27;;;;;;;19.52;9.18;;;;;;;;;;4982162;28;20026;-77
2022/01/27 15:24:53;;;;;;;18.58;9.27;;;;;;;;;;4982199;28;20038;-78
2022/01/27 15:27:19;;;;;;;18.13;8.88;;;;;;;;;;4984957;28;20035;-78
2022/01/27 15:29:45;;;;;;;17.63;8.40;;;;;;;;;;4981710;28;20072;-78
2022/01/27 15:32:15;;;;;;;16.65;8.48;;;;;;;;;;4984183;28;20042;-78
2022/01/27 15:34:41;;;;;;;16.02;8.38;;;;;;;;;;4981141;28;20046;-76
2022/01/27 15:37:07;;;;;;;18.42;8.98;;;;;;;;;;4982648;28;20034;-76
2022/01/27 15:39:36;;;;;;;14.35;7.55;;;;;;;;;;4982958;28;20506;-76
2022/01/27 15:42:02;;;;;;;15.63;8.25;;;;;;;;;;4982261;28;20051;-76
2022/01/27 15:44:28;;;;;;;15.20;8.35;;;;;;;;;;4981669;28;20038;-77
2022/01/27 15:46:55;;;;;;;17.13;7.70;;;;;;;;;;4983617;28;20114;-76